sensor_id;sensor_type;location;lat;lon;timestamp;P1;durP1;ratioP1;P2;durP2;ratioP2
35245;SDS011;21379;50.962;6.960;2023-02-20T00:00:37;12.73;;;4.25;;
35245;SDS011;21379;50.962;6.960;2023-02-20T00:03:05;11.05;;;4.35;;
35245;SDS011;21379;50.962;6.960;2023-02-20T00:05:32;9.07;;;4.30;;
35245;SDS011;21379;50.962;6.960;2023-02-20T00:07:59;11.45;;;5.05;;
35245;SDS011;21379;50.962;6.960;2023-02-20T00:10:28;12.05;;;5.72;;
35245;SDS011;21379;50.962;6.960;2023-02-20T00:12:54;14.40;;;4.78;;
35245;SDS011;21379;50.962;6.960;2023-02-20T00:15:21;8.23;;;4.53;;
35245;SDS011;21379;50.962;6.960;2023-02-20T00:17:48;11.57;;;5.38;;
35245;SDS011;21379;50.962;6.960;2023-02-20T00:20:15;16.27;;;5.60;;
35245;SDS011;21379;50.962;6.960;2023-02-20T00:22:44;7.50;;;4.60;;
35245;SDS011;21379;50.962;6.960;2023-02-20T00:25:11;9.95;;;5.32;;
35245;SDS011;21379;50.962;6.960;2023-02-20T00:27:39;11.88;;;5.45;;
35245;SDS011;21379;50.962;6.960;2023-02-20T00:30:09;11.73;;;5.25;;
35245;SDS011;21379;50.962;6.960;2023-02-20T00:32:40;20.00;;;4.10;;
35245;SDS011;21379;50.962;6.960;2023-02-20T00:35:07;10.52;;;4.93;;
35245;SDS011;21379;50.962;6.960;2023-02-20T00:37:34;13.50;;;4.72;;
35245;SDS011;21379;50.962;6.960;2023-02-20T00:40:02;13.60;;;5.45;;
35245;SDS011;21379;50.962;6.960;2023-02-20T00:42:29;8.90;;;4.78;;
35245;SDS011;21379;50.962;6.960;2023-02-20T00:44:57;14.20;;;5.35;;
35245;SDS011;21379;50.962;6.960;2023-02-20T00:47:24;13.57;;;5.47;;
35245;SDS011;21379;50.962;6.960;2023-02-20T00:49:51;10.18;;;5.07;;
35245;SDS011;21379;50.962;6.960;2023-02-20T00:52:18;14.07;;;5.68;;
35245;SDS011;21379;50.962;6.960;2023-02-20T00:54:45;11.73;;;5.43;;
35245;SDS011;21379;50.962;6.960;2023-02-20T00:57:11;17.27;;;6.38;;
35245;SDS011;21379;50.962;6.960;2023-02-20T00:59:38;12.82;;;5.43;;
35245;SDS011;21379;50.962;6.960;2023-02-20T01:02:07;14.75;;;6.38;;
35245;SDS011;21379;50.962;6.960;2023-02-20T01:04:34;28.85;;;4.95;;
35245;SDS011;21379;50.962;6.960;2023-02-20T01:07:00;12.60;;;6.00;;
35245;SDS011;21379;50.962;6.960;2023-02-20T01:09:27;14.98;;;5.78;;
35245;SDS011;21379;50.962;6.960;2023-02-20T01:11:54;13.20;;;5.72;;
35245;SDS011;21379;50.962;6.960;2023-02-20T01:14:21;10.60;;;4.55;;
35245;SDS011;21379;50.962;6.960;2023-02-20T01:16:49;8.73;;;5.45;;
35245;SDS011;21379;50.962;6.960;2023-02-20T01:19:20;14.65;;;7.00;;
35245;SDS011;21379;50.962;6.960;2023-02-20T01:21:48;11.88;;;5.57;;
35245;SDS011;21379;50.962;6.960;2023-02-20T01:24:15;13.05;;;6.20;;
35245;SDS011;21379;50.962;6.960;2023-02-20T01:26:43;19.77;;;6.45;;
35245;SDS011;21379;50.962;6.960;2023-02-20T01:29:11;18.15;;;6.80;;
35245;SDS011;21379;50.962;6.960;2023-02-20T01:31:38;12.07;;;5.60;;
35245;SDS011;21379;50.962;6.960;2023-02-20T01:34:05;17.30;;;6.97;;
35245;SDS011;21379;50.962;6.960;2023-02-20T01:36:33;23.52;;;6.28;;
35245;SDS011;21379;50.962;6.960;2023-02-20T01:39:02;18.25;;;6.47;;
35245;SDS011;21379;50.962;6.960;2023-02-20T01:41:29;14.95;;;5.50;;
35245;SDS011;21379;50.962;6.960;2023-02-20T01:43:55;13.95;;;5.88;;
35245;SDS011;21379;50.962;6.960;2023-02-20T01:46:41;15.73;;;6.25;;
35245;SDS011;21379;50.962;6.960;2023-02-20T01:49:12;11.38;;;6.60;;
35245;SDS011;21379;50.962;6.960;2023-02-20T01:51:51;14.80;;;7.72;;
35245;SDS011;21379;50.962;6.960;2023-02-20T01:54:22;15.48;;;5.45;;
35245;SDS011;21379;50.962;6.960;2023-02-20T01:56:51;15.90;;;7.85;;
35245;SDS011;21379;50.962;6.960;2023-02-20T01:59:21;15.25;;;6.90;;
35245;SDS011;21379;50.962;6.960;2023-02-20T02:01:50;16.88;;;7.63;;
35245;SDS011;21379;50.962;6.960;2023-02-20T02:04:17;13.32;;;5.95;;
35245;SDS011;21379;50.962;6.960;2023-02-20T02:06:45;18.90;;;6.28;;
35245;SDS011;21379;50.962;6.960;2023-02-20T02:09:17;13.27;;;6.03;;
35245;SDS011;21379;50.962;6.960;2023-02-20T02:11:51;12.55;;;6.30;;
35245;SDS011;21379;50.962;6.960;2023-02-20T02:14:18;13.75;;;6.60;;
35245;SDS011;21379;50.962;6.960;2023-02-20T02:16:48;13.35;;;6.47;;
35245;SDS011;21379;50.962;6.960;2023-02-20T02:19:26;11.45;;;6.38;;
35245;SDS011;21379;50.962;6.960;2023-02-20T02:22:10;14.77;;;7.30;;
35245;SDS011;21379;50.962;6.960;2023-02-20T02:25:03;19.05;;;7.03;;
35245;SDS011;21379;50.962;6.960;2023-02-20T02:28:07;12.05;;;5.70;;
35245;SDS011;21379;50.962;6.960;2023-02-20T02:33:59;10.55;;;5.00;;
35245;SDS011;21379;50.962;6.960;2023-02-20T02:36:50;13.15;;;6.63;;
35245;SDS011;21379;50.962;6.960;2023-02-20T02:39:24;11.48;;;6.20;;
35245;SDS011;21379;50.962;6.960;2023-02-20T02:42:00;10.15;;;4.85;;
35245;SDS011;21379;50.962;6.960;2023-02-20T02:44:34;11.13;;;4.95;;
35245;SDS011;21379;50.962;6.960;2023-02-20T02:47:06;10.15;;;6.28;;
35245;SDS011;21379;50.962;6.960;2023-02-20T02:49:45;8.68;;;4.50;;
35245;SDS011;21379;50.962;6.960;2023-02-20T02:52:17;10.52;;;5.13;;
35245;SDS011;21379;50.962;6.960;2023-02-20T02:55:01;8.35;;;3.83;;
35245;SDS011;21379;50.962;6.960;2023-02-20T02:57:27;10.18;;;5.28;;
35245;SDS011;21379;50.962;6.960;2023-02-20T02:59:56;7.10;;;4.28;;
35245;SDS011;21379;50.962;6.960;2023-02-20T03:02:26;11.60;;;5.18;;
35245;SDS011;21379;50.962;6.960;2023-02-20T03:04:56;9.80;;;3.83;;
35245;SDS011;21379;50.962;6.960;2023-02-20T03:07:26;8.65;;;4.60;;
35245;SDS011;21379;50.962;6.960;2023-02-20T03:09:55;10.23;;;4.45;;
35245;SDS011;21379;50.962;6.960;2023-02-20T03:12:25;11.80;;;5.30;;
35245;SDS011;21379;50.962;6.960;2023-02-20T03:14:54;8.27;;;4.75;;
35245;SDS011;21379;50.962;6.960;2023-02-20T03:17:42;16.60;;;5.15;;
35245;SDS011;21379;50.962;6.960;2023-02-20T03:20:14;12.30;;;4.90;;
35245;SDS011;21379;50.962;6.960;2023-02-20T03:22:45;9.93;;;4.15;;
35245;SDS011;21379;50.962;6.960;2023-02-20T03:25:18;10.70;;;5.30;;
35245;SDS011;21379;50.962;6.960;2023-02-20T03:27:51;15.57;;;5.38;;
35245;SDS011;21379;50.962;6.960;2023-02-20T03:30:25;9.82;;;4.88;;
35245;SDS011;21379;50.962;6.960;2023-02-20T03:32:56;14.10;;;4.85;;
35245;SDS011;21379;50.962;6.960;2023-02-20T03:35:44;9.18;;;4.30;;
35245;SDS011;21379;50.962;6.960;2023-02-20T03:38:34;12.80;;;4.65;;
35245;SDS011;21379;50.962;6.960;2023-02-20T03:41:21;6.75;;;4.38;;
35245;SDS011;21379;50.962;6.960;2023-02-20T03:44:08;8.77;;;4.35;;
35245;SDS011;21379;50.962;6.960;2023-02-20T03:46:36;7.60;;;3.92;;
35245;SDS011;21379;50.962;6.960;2023-02-20T03:49:05;9.30;;;4.45;;
35245;SDS011;21379;50.962;6.960;2023-02-20T03:51:36;7.53;;;3.88;;
35245;SDS011;21379;50.962;6.960;2023-02-20T03:54:04;11.02;;;4.30;;
35245;SDS011;21379;50.962;6.960;2023-02-20T03:56:33;9.55;;;4.53;;
35245;SDS011;21379;50.962;6.960;2023-02-20T03:59:05;9.38;;;4.40;;
35245;SDS011;21379;50.962;6.960;2023-02-20T04:01:37;7.80;;;4.18;;
35245;SDS011;21379;50.962;6.960;2023-02-20T04:04:06;8.88;;;4.28;;
35245;SDS011;21379;50.962;6.960;2023-02-20T04:06:39;9.63;;;4.30;;
35245;SDS011;21379;50.962;6.960;2023-02-20T04:09:11;6.35;;;3.88;;
35245;SDS011;21379;50.962;6.960;2023-02-20T04:11:42;10.02;;;4.40;;
35245;SDS011;21379;50.962;6.960;2023-02-20T04:14:13;14.85;;;4.38;;
35245;SDS011;21379;50.962;6.960;2023-02-20T04:16:43;14.57;;;5.28;;
35245;SDS011;21379;50.962;6.960;2023-02-20T04:19:12;10.48;;;3.58;;
35245;SDS011;21379;50.962;6.960;2023-02-20T04:21:40;12.32;;;5.10;;
35245;SDS011;21379;50.962;6.960;2023-02-20T04:24:12;8.13;;;4.68;;
35245;SDS011;21379;50.962;6.960;2023-02-20T04:26:42;10.55;;;4.57;;
35245;SDS011;21379;50.962;6.960;2023-02-20T04:29:10;10.98;;;4.78;;
35245;SDS011;21379;50.962;6.960;2023-02-20T04:31:37;15.43;;;5.95;;
35245;SDS011;21379;50.962;6.960;2023-02-20T04:34:04;11.77;;;5.00;;
35245;SDS011;21379;50.962;6.960;2023-02-20T04:36:31;12.02;;;5.03;;
35245;SDS011;21379;50.962;6.960;2023-02-20T04:38:58;14.45;;;4.95;;
35245;SDS011;21379;50.962;6.960;2023-02-20T04:41:26;9.63;;;5.35;;
35245;SDS011;21379;50.962;6.960;2023-02-20T04:43:52;7.18;;;4.05;;
35245;SDS011;21379;50.962;6.960;2023-02-20T04:46:40;7.55;;;4.30;;
35245;SDS011;21379;50.962;6.960;2023-02-20T04:49:06;13.65;;;5.30;;
35245;SDS011;21379;50.962;6.960;2023-02-20T04:51:33;10.32;;;5.57;;
35245;SDS011;21379;50.962;6.960;2023-02-20T04:54:00;9.48;;;4.88;;
35245;SDS011;21379;50.962;6.960;2023-02-20T04:56:28;12.45;;;5.30;;
35245;SDS011;21379;50.962;6.960;2023-02-20T04:58:55;7.63;;;4.47;;
35245;SDS011;21379;50.962;6.960;2023-02-20T05:01:22;11.80;;;5.00;;
35245;SDS011;21379;50.962;6.960;2023-02-20T05:03:49;11.02;;;4.80;;
35245;SDS011;21379;50.962;6.960;2023-02-20T05:06:15;8.82;;;4.18;;
35245;SDS011;21379;50.962;6.960;2023-02-20T05:08:42;13.00;;;4.35;;
35245;SDS011;21379;50.962;6.960;2023-02-20T05:11:09;12.65;;;5.18;;
35245;SDS011;21379;50.962;6.960;2023-02-20T05:13:37;12.43;;;5.00;;
35245;SDS011;21379;50.962;6.960;2023-02-20T05:16:04;9.05;;;4.63;;
35245;SDS011;21379;50.962;6.960;2023-02-20T05:18:32;9.88;;;5.00;;
35245;SDS011;21379;50.962;6.960;2023-02-20T05:20:59;7.68;;;4.22;;
35245;SDS011;21379;50.962;6.960;2023-02-20T05:23:44;11.55;;;5.85;;
35245;SDS011;21379;50.962;6.960;2023-02-20T05:26:11;12.52;;;4.72;;
35245;SDS011;21379;50.962;6.960;2023-02-20T05:28:43;13.48;;;5.28;;
35245;SDS011;21379;50.962;6.960;2023-02-20T05:31:10;12.80;;;4.45;;
35245;SDS011;21379;50.962;6.960;2023-02-20T05:33:37;11.27;;;5.60;;
35245;SDS011;21379;50.962;6.960;2023-02-20T05:36:04;11.88;;;5.78;;
35245;SDS011;21379;50.962;6.960;2023-02-20T05:38:31;9.45;;;4.25;;
35245;SDS011;21379;50.962;6.960;2023-02-20T05:40:58;11.10;;;4.80;;
35245;SDS011;21379;50.962;6.960;2023-02-20T05:43:25;10.52;;;4.97;;
35245;SDS011;21379;50.962;6.960;2023-02-20T05:45:53;11.30;;;5.30;;
35245;SDS011;21379;50.962;6.960;2023-02-20T05:48:20;16.15;;;4.82;;
35245;SDS011;21379;50.962;6.960;2023-02-20T05:50:46;10.50;;;5.20;;
35245;SDS011;21379;50.962;6.960;2023-02-20T05:53:14;8.30;;;3.85;;
35245;SDS011;21379;50.962;6.960;2023-02-20T05:55:41;9.38;;;4.32;;
35245;SDS011;21379;50.962;6.960;2023-02-20T05:58:08;10.75;;;5.05;;
35245;SDS011;21379;50.962;6.960;2023-02-20T06:00:35;12.75;;;5.00;;
35245;SDS011;21379;50.962;6.960;2023-02-20T06:03:06;14.75;;;4.78;;
35245;SDS011;21379;50.962;6.960;2023-02-20T06:05:34;9.32;;;5.57;;
35245;SDS011;21379;50.962;6.960;2023-02-20T06:08:00;12.35;;;4.78;;
35245;SDS011;21379;50.962;6.960;2023-02-20T06:10:28;10.95;;;4.78;;
35245;SDS011;21379;50.962;6.960;2023-02-20T06:12:55;12.00;;;4.45;;
35245;SDS011;21379;50.962;6.960;2023-02-20T06:15:21;8.95;;;4.47;;
35245;SDS011;21379;50.962;6.960;2023-02-20T06:17:48;10.32;;;5.03;;
35245;SDS011;21379;50.962;6.960;2023-02-20T06:20:16;10.27;;;5.07;;
35245;SDS011;21379;50.962;6.960;2023-02-20T06:22:45;6.88;;;3.80;;
35245;SDS011;21379;50.962;6.960;2023-02-20T06:25:12;10.00;;;4.22;;
35245;SDS011;21379;50.962;6.960;2023-02-20T06:27:39;10.30;;;5.07;;
35245;SDS011;21379;50.962;6.960;2023-02-20T06:30:07;9.32;;;4.45;;
35245;SDS011;21379;50.962;6.960;2023-02-20T06:32:34;10.50;;;3.97;;
35245;SDS011;21379;50.962;6.960;2023-02-20T06:35:01;9.02;;;5.55;;
35245;SDS011;21379;50.962;6.960;2023-02-20T06:37:29;13.25;;;5.85;;
35245;SDS011;21379;50.962;6.960;2023-02-20T06:39:56;11.93;;;5.93;;
35245;SDS011;21379;50.962;6.960;2023-02-20T06:42:23;14.43;;;6.47;;
35245;SDS011;21379;50.962;6.960;2023-02-20T06:44:49;13.43;;;5.20;;
35245;SDS011;21379;50.962;6.960;2023-02-20T06:47:16;9.57;;;4.88;;
35245;SDS011;21379;50.962;6.960;2023-02-20T06:49:43;11.23;;;6.10;;
35245;SDS011;21379;50.962;6.960;2023-02-20T06:52:10;17.20;;;4.85;;
35245;SDS011;21379;50.962;6.960;2023-02-20T06:54:39;15.30;;;5.55;;
35245;SDS011;21379;50.962;6.960;2023-02-20T06:57:05;9.60;;;5.15;;
35245;SDS011;21379;50.962;6.960;2023-02-20T06:59:32;12.77;;;4.68;;
35245;SDS011;21379;50.962;6.960;2023-02-20T07:02:04;13.00;;;5.68;;
35245;SDS011;21379;50.962;6.960;2023-02-20T07:04:30;10.65;;;5.95;;
35245;SDS011;21379;50.962;6.960;2023-02-20T07:06:57;10.15;;;4.85;;
35245;SDS011;21379;50.962;6.960;2023-02-20T07:09:25;12.38;;;5.53;;
35245;SDS011;21379;50.962;6.960;2023-02-20T07:11:53;18.48;;;6.88;;
35245;SDS011;21379;50.962;6.960;2023-02-20T07:14:20;11.60;;;4.82;;
35245;SDS011;21379;50.962;6.960;2023-02-20T07:16:47;10.43;;;6.05;;
35245;SDS011;21379;50.962;6.960;2023-02-20T07:19:14;9.88;;;5.53;;
35245;SDS011;21379;50.962;6.960;2023-02-20T07:21:41;17.13;;;6.30;;
35245;SDS011;21379;50.962;6.960;2023-02-20T07:24:08;13.18;;;5.32;;
35245;SDS011;21379;50.962;6.960;2023-02-20T07:26:34;14.15;;;5.32;;
35245;SDS011;21379;50.962;6.960;2023-02-20T07:29:04;13.95;;;6.45;;
35245;SDS011;21379;50.962;6.960;2023-02-20T07:31:32;16.83;;;6.68;;
35245;SDS011;21379;50.962;6.960;2023-02-20T07:33:59;20.60;;;6.55;;
35245;SDS011;21379;50.962;6.960;2023-02-20T07:36:25;9.43;;;5.05;;
35245;SDS011;21379;50.962;6.960;2023-02-20T07:38:53;12.32;;;5.28;;
35245;SDS011;21379;50.962;6.960;2023-02-20T07:41:20;16.73;;;6.20;;
35245;SDS011;21379;50.962;6.960;2023-02-20T07:43:47;15.50;;;5.38;;
35245;SDS011;21379;50.962;6.960;2023-02-20T07:46:16;10.68;;;4.20;;
35245;SDS011;21379;50.962;6.960;2023-02-20T07:48:43;11.05;;;6.43;;
35245;SDS011;21379;50.962;6.960;2023-02-20T07:51:10;10.93;;;6.53;;
35245;SDS011;21379;50.962;6.960;2023-02-20T07:53:36;12.57;;;5.93;;
35245;SDS011;21379;50.962;6.960;2023-02-20T07:56:03;15.70;;;6.50;;
35245;SDS011;21379;50.962;6.960;2023-02-20T07:58:31;15.40;;;6.57;;
35245;SDS011;21379;50.962;6.960;2023-02-20T08:00:58;15.73;;;6.78;;
35245;SDS011;21379;50.962;6.960;2023-02-20T08:03:26;17.35;;;6.72;;
35245;SDS011;21379;50.962;6.960;2023-02-20T08:05:53;15.98;;;5.75;;
35245;SDS011;21379;50.962;6.960;2023-02-20T08:08:19;16.92;;;6.63;;
35245;SDS011;21379;50.962;6.960;2023-02-20T08:10:48;21.60;;;6.68;;
35245;SDS011;21379;50.962;6.960;2023-02-20T08:13:15;15.70;;;6.88;;
35245;SDS011;21379;50.962;6.960;2023-02-20T08:15:43;15.07;;;5.65;;
35245;SDS011;21379;50.962;6.960;2023-02-20T08:18:12;18.92;;;6.25;;
35245;SDS011;21379;50.962;6.960;2023-02-20T08:20:40;18.40;;;6.55;;
35245;SDS011;21379;50.962;6.960;2023-02-20T08:23:12;11.23;;;5.55;;
35245;SDS011;21379;50.962;6.960;2023-02-20T08:25:42;12.38;;;4.22;;
35245;SDS011;21379;50.962;6.960;2023-02-20T08:28:09;8.93;;;5.22;;
35245;SDS011;21379;50.962;6.960;2023-02-20T08:30:36;17.60;;;6.03;;
35245;SDS011;21379;50.962;6.960;2023-02-20T08:33:02;7.28;;;4.63;;
35245;SDS011;21379;50.962;6.960;2023-02-20T08:35:30;10.73;;;3.72;;
35245;SDS011;21379;50.962;6.960;2023-02-20T08:37:59;12.45;;;5.07;;
35245;SDS011;21379;50.962;6.960;2023-02-20T08:40:26;16.65;;;6.00;;
35245;SDS011;21379;50.962;6.960;2023-02-20T08:42:53;9.13;;;4.50;;
35245;SDS011;21379;50.962;6.960;2023-02-20T08:45:20;9.70;;;4.28;;
35245;SDS011;21379;50.962;6.960;2023-02-20T08:47:47;7.47;;;3.90;;
35245;SDS011;21379;50.962;6.960;2023-02-20T08:50:14;17.08;;;4.53;;
35245;SDS011;21379;50.962;6.960;2023-02-20T08:52:41;7.95;;;4.30;;
35245;SDS011;21379;50.962;6.960;2023-02-20T08:55:10;4.32;;;2.97;;
35245;SDS011;21379;50.962;6.960;2023-02-20T08:57:37;6.82;;;3.45;;
35245;SDS011;21379;50.962;6.960;2023-02-20T09:00:04;4.35;;;3.25;;
35245;SDS011;21379;50.962;6.960;2023-02-20T09:02:31;11.50;;;3.70;;
35245;SDS011;21379;50.962;6.960;2023-02-20T09:04:58;8.43;;;4.03;;
35245;SDS011;21379;50.962;6.960;2023-02-20T09:07:25;6.97;;;3.22;;
35245;SDS011;21379;50.962;6.960;2023-02-20T09:09:51;7.90;;;3.05;;
35245;SDS011;21379;50.962;6.960;2023-02-20T09:12:20;10.43;;;4.32;;
35245;SDS011;21379;50.962;6.960;2023-02-20T09:14:46;7.72;;;4.15;;
35245;SDS011;21379;50.962;6.960;2023-02-20T09:17:13;6.55;;;3.35;;
35245;SDS011;21379;50.962;6.960;2023-02-20T09:19:41;9.57;;;3.83;;
35245;SDS011;21379;50.962;6.960;2023-02-20T09:22:08;5.55;;;3.95;;
35245;SDS011;21379;50.962;6.960;2023-02-20T09:24:34;5.20;;;3.20;;
35245;SDS011;21379;50.962;6.960;2023-02-20T09:27:02;7.80;;;4.35;;
35245;SDS011;21379;50.962;6.960;2023-02-20T09:29:31;8.95;;;4.00;;
35245;SDS011;21379;50.962;6.960;2023-02-20T09:32:00;15.52;;;5.30;;
35245;SDS011;21379;50.962;6.960;2023-02-20T09:34:27;8.60;;;4.93;;
35245;SDS011;21379;50.962;6.960;2023-02-20T09:36:54;8.35;;;5.05;;
35245;SDS011;21379;50.962;6.960;2023-02-20T09:39:21;8.40;;;3.95;;
35245;SDS011;21379;50.962;6.960;2023-02-20T09:41:55;11.32;;;4.60;;
35245;SDS011;21379;50.962;6.960;2023-02-20T09:44:34;15.15;;;4.72;;
35245;SDS011;21379;50.962;6.960;2023-02-20T09:49:38;9.68;;;4.05;;
35245;SDS011;21379;50.962;6.960;2023-02-20T09:52:07;7.30;;;3.65;;
35245;SDS011;21379;50.962;6.960;2023-02-20T09:54:38;8.10;;;4.15;;
35245;SDS011;21379;50.962;6.960;2023-02-20T09:57:09;14.68;;;5.10;;
35245;SDS011;21379;50.962;6.960;2023-02-20T09:59:41;11.77;;;5.32;;
35245;SDS011;21379;50.962;6.960;2023-02-20T10:02:14;10.00;;;4.00;;
35245;SDS011;21379;50.962;6.960;2023-02-20T10:04:44;10.88;;;5.38;;
35245;SDS011;21379;50.962;6.960;2023-02-20T10:07:14;10.35;;;4.72;;
35245;SDS011;21379;50.962;6.960;2023-02-20T10:09:46;9.43;;;4.30;;
35245;SDS011;21379;50.962;6.960;2023-02-20T10:12:15;8.48;;;4.10;;
35245;SDS011;21379;50.962;6.960;2023-02-20T10:14:57;11.13;;;5.43;;
35245;SDS011;21379;50.962;6.960;2023-02-20T10:20:16;13.77;;;5.47;;
35245;SDS011;21379;50.962;6.960;2023-02-20T10:22:51;10.00;;;4.82;;
35245;SDS011;21379;50.962;6.960;2023-02-20T10:25:23;14.35;;;5.60;;
35245;SDS011;21379;50.962;6.960;2023-02-20T10:27:55;19.05;;;6.20;;
35245;SDS011;21379;50.962;6.960;2023-02-20T10:30:30;12.68;;;4.50;;
35245;SDS011;21379;50.962;6.960;2023-02-20T10:33:01;14.85;;;5.43;;
35245;SDS011;21379;50.962;6.960;2023-02-20T10:35:36;12.98;;;5.15;;
35245;SDS011;21379;50.962;6.960;2023-02-20T10:38:08;12.57;;;5.07;;
35245;SDS011;21379;50.962;6.960;2023-02-20T10:40:38;10.07;;;5.03;;
35245;SDS011;21379;50.962;6.960;2023-02-20T10:43:10;12.13;;;5.65;;
35245;SDS011;21379;50.962;6.960;2023-02-20T10:45:46;11.63;;;5.10;;
35245;SDS011;21379;50.962;6.960;2023-02-20T10:48:18;19.95;;;5.55;;
35245;SDS011;21379;50.962;6.960;2023-02-20T10:50:47;11.85;;;4.60;;
35245;SDS011;21379;50.962;6.960;2023-02-20T10:53:20;10.38;;;4.78;;
35245;SDS011;21379;50.962;6.960;2023-02-20T10:55:53;12.15;;;5.90;;
35245;SDS011;21379;50.962;6.960;2023-02-20T10:58:27;13.32;;;5.60;;
35245;SDS011;21379;50.962;6.960;2023-02-20T11:01:00;12.10;;;5.43;;
35245;SDS011;21379;50.962;6.960;2023-02-20T11:03:33;12.38;;;5.10;;
35245;SDS011;21379;50.962;6.960;2023-02-20T11:06:04;12.95;;;5.28;;
35245;SDS011;21379;50.962;6.960;2023-02-20T11:08:34;11.27;;;5.68;;
35245;SDS011;21379;50.962;6.960;2023-02-20T11:11:05;14.50;;;5.57;;
35245;SDS011;21379;50.962;6.960;2023-02-20T11:13:48;18.98;;;5.63;;
35245;SDS011;21379;50.962;6.960;2023-02-20T11:16:19;9.75;;;5.70;;
35245;SDS011;21379;50.962;6.960;2023-02-20T11:19:00;9.80;;;5.45;;
35245;SDS011;21379;50.962;6.960;2023-02-20T11:21:36;14.13;;;5.18;;
35245;SDS011;21379;50.962;6.960;2023-02-20T11:24:18;11.80;;;5.32;;
35245;SDS011;21379;50.962;6.960;2023-02-20T11:26:59;9.90;;;5.00;;
35245;SDS011;21379;50.962;6.960;2023-02-20T11:29:29;10.43;;;5.00;;
35245;SDS011;21379;50.962;6.960;2023-02-20T11:32:16;16.08;;;5.28;;
35245;SDS011;21379;50.962;6.960;2023-02-20T11:34:49;17.70;;;5.72;;
35245;SDS011;21379;50.962;6.960;2023-02-20T11:37:37;13.90;;;6.15;;
35245;SDS011;21379;50.962;6.960;2023-02-20T11:40:13;9.45;;;5.05;;
35245;SDS011;21379;50.962;6.960;2023-02-20T11:42:42;12.68;;;5.65;;
35245;SDS011;21379;50.962;6.960;2023-02-20T11:45:11;19.23;;;5.78;;
35245;SDS011;21379;50.962;6.960;2023-02-20T11:47:41;11.05;;;5.30;;
35245;SDS011;21379;50.962;6.960;2023-02-20T11:50:09;19.55;;;6.80;;
35245;SDS011;21379;50.962;6.960;2023-02-20T11:52:53;12.57;;;6.45;;
35245;SDS011;21379;50.962;6.960;2023-02-20T11:55:23;17.48;;;7.32;;
35245;SDS011;21379;50.962;6.960;2023-02-20T11:57:51;12.38;;;6.53;;
35245;SDS011;21379;50.962;6.960;2023-02-20T12:00:19;10.48;;;5.47;;
35245;SDS011;21379;50.962;6.960;2023-02-20T12:02:50;22.25;;;6.50;;
35245;SDS011;21379;50.962;6.960;2023-02-20T12:05:19;13.35;;;6.25;;
35245;SDS011;21379;50.962;6.960;2023-02-20T12:07:54;20.30;;;5.53;;
35245;SDS011;21379;50.962;6.960;2023-02-20T12:10:24;13.95;;;6.65;;
35245;SDS011;21379;50.962;6.960;2023-02-20T12:12:56;11.27;;;5.80;;
35245;SDS011;21379;50.962;6.960;2023-02-20T12:15:24;10.52;;;4.85;;
35245;SDS011;21379;50.962;6.960;2023-02-20T12:17:59;14.73;;;5.40;;
35245;SDS011;21379;50.962;6.960;2023-02-20T12:23:20;11.48;;;5.55;;
35245;SDS011;21379;50.962;6.960;2023-02-20T12:25:55;17.60;;;7.43;;
35245;SDS011;21379;50.962;6.960;2023-02-20T12:28:33;14.95;;;5.88;;
35245;SDS011;21379;50.962;6.960;2023-02-20T12:31:11;18.23;;;6.85;;
35245;SDS011;21379;50.962;6.960;2023-02-20T12:33:55;19.60;;;5.78;;
35245;SDS011;21379;50.962;6.960;2023-02-20T12:36:30;13.70;;;5.47;;
35245;SDS011;21379;50.962;6.960;2023-02-20T12:39:02;10.60;;;6.07;;
35245;SDS011;21379;50.962;6.960;2023-02-20T12:41:49;18.67;;;5.57;;
35245;SDS011;21379;50.962;6.960;2023-02-20T12:44:29;12.60;;;6.57;;
35245;SDS011;21379;50.962;6.960;2023-02-20T12:47:12;15.00;;;6.65;;
35245;SDS011;21379;50.962;6.960;2023-02-20T12:49:56;21.15;;;7.07;;
35245;SDS011;21379;50.962;6.960;2023-02-20T12:52:54;25.70;;;7.15;;
35245;SDS011;21379;50.962;6.960;2023-02-20T12:55:31;16.17;;;6.95;;
35245;SDS011;21379;50.962;6.960;2023-02-20T12:58:12;17.38;;;6.63;;
35245;SDS011;21379;50.962;6.960;2023-02-20T13:00:45;13.77;;;6.60;;
35245;SDS011;21379;50.962;6.960;2023-02-20T13:03:17;20.48;;;7.20;;
35245;SDS011;21379;50.962;6.960;2023-02-20T13:05:48;14.88;;;6.50;;
35245;SDS011;21379;50.962;6.960;2023-02-20T13:08:17;15.93;;;6.22;;
35245;SDS011;21379;50.962;6.960;2023-02-20T13:10:51;18.30;;;6.80;;
35245;SDS011;21379;50.962;6.960;2023-02-20T13:13:21;20.77;;;6.93;;
35245;SDS011;21379;50.962;6.960;2023-02-20T13:15:51;12.73;;;5.72;;
35245;SDS011;21379;50.962;6.960;2023-02-20T13:18:25;16.67;;;6.45;;
35245;SDS011;21379;50.962;6.960;2023-02-20T13:20:59;22.88;;;6.40;;
35245;SDS011;21379;50.962;6.960;2023-02-20T13:23:32;17.75;;;7.13;;
35245;SDS011;21379;50.962;6.960;2023-02-20T13:26:00;14.98;;;6.22;;
35245;SDS011;21379;50.962;6.960;2023-02-20T13:28:34;15.75;;;7.05;;
35245;SDS011;21379;50.962;6.960;2023-02-20T13:31:10;21.00;;;5.55;;
35245;SDS011;21379;50.962;6.960;2023-02-20T13:33:42;15.38;;;7.45;;
35245;SDS011;21379;50.962;6.960;2023-02-20T13:36:35;15.95;;;7.15;;
35245;SDS011;21379;50.962;6.960;2023-02-20T13:54:25;21.55;;;6.95;;
35245;SDS011;21379;50.962;6.960;2023-02-20T13:57:00;20.67;;;6.70;;
35245;SDS011;21379;50.962;6.960;2023-02-20T13:59:39;20.23;;;7.38;;
35245;SDS011;21379;50.962;6.960;2023-02-20T14:02:13;19.20;;;6.45;;
35245;SDS011;21379;50.962;6.960;2023-02-20T14:07:31;14.82;;;6.38;;
35245;SDS011;21379;50.962;6.960;2023-02-20T14:10:05;16.50;;;5.80;;
35245;SDS011;21379;50.962;6.960;2023-02-20T14:12:39;15.80;;;6.78;;
35245;SDS011;21379;50.962;6.960;2023-02-20T14:15:06;18.23;;;6.90;;
35245;SDS011;21379;50.962;6.960;2023-02-20T14:17:34;19.63;;;6.63;;
35245;SDS011;21379;50.962;6.960;2023-02-20T14:20:04;17.17;;;6.47;;
35245;SDS011;21379;50.962;6.960;2023-02-20T14:22:39;15.85;;;6.75;;
35245;SDS011;21379;50.962;6.960;2023-02-20T14:25:21;15.77;;;5.55;;
35245;SDS011;21379;50.962;6.960;2023-02-20T14:27:51;13.82;;;5.80;;
35245;SDS011;21379;50.962;6.960;2023-02-20T14:30:28;10.68;;;5.63;;
35245;SDS011;21379;50.962;6.960;2023-02-20T14:32:55;17.38;;;6.50;;
35245;SDS011;21379;50.962;6.960;2023-02-20T14:35:30;18.98;;;5.90;;
35245;SDS011;21379;50.962;6.960;2023-02-20T14:38:10;18.35;;;5.82;;
35245;SDS011;21379;50.962;6.960;2023-02-20T14:40:43;12.93;;;6.10;;
35245;SDS011;21379;50.962;6.960;2023-02-20T14:43:13;16.50;;;5.50;;
35245;SDS011;21379;50.962;6.960;2023-02-20T14:45:43;15.50;;;5.78;;
35245;SDS011;21379;50.962;6.960;2023-02-20T14:48:21;14.10;;;4.47;;
35245;SDS011;21379;50.962;6.960;2023-02-20T14:51:01;16.05;;;5.38;;
35245;SDS011;21379;50.962;6.960;2023-02-20T14:53:45;18.30;;;6.90;;
35245;SDS011;21379;50.962;6.960;2023-02-20T14:56:24;17.63;;;5.68;;
35245;SDS011;21379;50.962;6.960;2023-02-20T14:58:51;13.35;;;5.55;;
35245;SDS011;21379;50.962;6.960;2023-02-20T15:01:33;16.90;;;7.22;;
35245;SDS011;21379;50.962;6.960;2023-02-20T15:04:04;15.65;;;5.40;;
35245;SDS011;21379;50.962;6.960;2023-02-20T15:06:36;15.98;;;5.57;;
35245;SDS011;21379;50.962;6.960;2023-02-20T15:09:04;17.63;;;6.22;;
35245;SDS011;21379;50.962;6.960;2023-02-20T15:11:32;9.60;;;5.20;;
35245;SDS011;21379;50.962;6.960;2023-02-20T15:14:02;15.35;;;4.80;;
35245;SDS011;21379;50.962;6.960;2023-02-20T15:16:29;13.60;;;5.10;;
35245;SDS011;21379;50.962;6.960;2023-02-20T15:18:59;10.23;;;4.53;;
35245;SDS011;21379;50.962;6.960;2023-02-20T15:21:30;13.80;;;4.90;;
35245;SDS011;21379;50.962;6.960;2023-02-20T15:24:11;11.50;;;5.88;;
35245;SDS011;21379;50.962;6.960;2023-02-20T15:26:55;12.70;;;5.27;;
35245;SDS011;21379;50.962;6.960;2023-02-20T15:29:36;12.35;;;4.90;;